sensor_id;sensor_type;location;lat;lon;timestamp;P1;durP1;ratioP1;P2;durP2;ratioP2
23258;SDS011;11798;51.528;7.240;2022-12-29T00:01:45;1.27;;;1.17;;
23258;SDS011;11798;51.528;7.240;2022-12-29T00:04:11;1.27;;;1.00;;
23258;SDS011;11798;51.528;7.240;2022-12-29T00:06:39;1.30;;;1.20;;
23258;SDS011;11798;51.528;7.240;2022-12-29T00:09:04;1.40;;;1.30;;
23258;SDS011;11798;51.528;7.240;2022-12-29T00:11:30;2.10;;;1.53;;
23258;SDS011;11798;51.528;7.240;2022-12-29T00:13:55;1.30;;;1.20;;
23258;SDS011;11798;51.528;7.240;2022-12-29T00:16:40;1.10;;;1.03;;
23258;SDS011;11798;51.528;7.240;2022-12-29T00:19:08;2.23;;;1.30;;
23258;SDS011;11798;51.528;7.240;2022-12-29T00:21:54;2.03;;;1.20;;
23258;SDS011;11798;51.528;7.240;2022-12-29T00:24:38;1.97;;;1.40;;
23258;SDS011;11798;51.528;7.240;2022-12-29T00:27:22;1.90;;;1.50;;
23258;SDS011;11798;51.528;7.240;2022-12-29T00:30:10;5.33;;;1.60;;
23258;SDS011;11798;51.528;7.240;2022-12-29T00:32:59;1.97;;;1.23;;
23258;SDS011;11798;51.528;7.240;2022-12-29T00:35:45;2.37;;;1.43;;
23258;SDS011;11798;51.528;7.240;2022-12-29T00:38:17;1.63;;;1.30;;
23258;SDS011;11798;51.528;7.240;2022-12-29T00:41:02;1.30;;;1.20;;
23258;SDS011;11798;51.528;7.240;2022-12-29T00:43:46;1.97;;;1.53;;
23258;SDS011;11798;51.528;7.240;2022-12-29T00:46:30;3.50;;;1.30;;
23258;SDS011;11798;51.528;7.240;2022-12-29T00:48:59;2.83;;;1.40;;
23258;SDS011;11798;51.528;7.240;2022-12-29T00:51:44;2.40;;;1.40;;
23258;SDS011;11798;51.528;7.240;2022-12-29T00:54:10;2.40;;;1.13;;
23258;SDS011;11798;51.528;7.240;2022-12-29T00:56:36;1.00;;;0.90;;
23258;SDS011;11798;51.528;7.240;2022-12-29T00:59:03;1.73;;;1.10;;
23258;SDS011;11798;51.528;7.240;2022-12-29T01:01:30;1.00;;;0.90;;
23258;SDS011;11798;51.528;7.240;2022-12-29T01:03:56;1.43;;;1.10;;
23258;SDS011;11798;51.528;7.240;2022-12-29T01:06:22;1.27;;;1.10;;
23258;SDS011;11798;51.528;7.240;2022-12-29T01:08:48;1.23;;;1.00;;
23258;SDS011;11798;51.528;7.240;2022-12-29T01:11:37;1.23;;;1.13;;
23258;SDS011;11798;51.528;7.240;2022-12-29T01:14:04;3.27;;;1.10;;
23258;SDS011;11798;51.528;7.240;2022-12-29T01:16:30;1.10;;;1.00;;
23258;SDS011;11798;51.528;7.240;2022-12-29T01:18:57;1.30;;;1.20;;
23258;SDS011;11798;51.528;7.240;2022-12-29T01:21:22;3.00;;;1.20;;
23258;SDS011;11798;51.528;7.240;2022-12-29T01:23:48;1.43;;;1.03;;
23258;SDS011;11798;51.528;7.240;2022-12-29T01:26:15;1.50;;;1.03;;
23258;SDS011;11798;51.528;7.240;2022-12-29T01:28:41;1.03;;;0.93;;
23258;SDS011;11798;51.528;7.240;2022-12-29T01:31:08;1.00;;;0.90;;
23258;SDS011;11798;51.528;7.240;2022-12-29T01:33:34;1.77;;;0.90;;
23258;SDS011;11798;51.528;7.240;2022-12-29T01:36:01;1.37;;;1.07;;
23258;SDS011;11798;51.528;7.240;2022-12-29T01:38:31;1.33;;;1.00;;
23258;SDS011;11798;51.528;7.240;2022-12-29T01:40:57;0.93;;;0.83;;
23258;SDS011;11798;51.528;7.240;2022-12-29T01:46:20;0.90;;;0.90;;
23258;SDS011;11798;51.528;7.240;2022-12-29T01:48:48;1.07;;;0.83;;
23258;SDS011;11798;51.528;7.240;2022-12-29T01:51:19;0.70;;;0.70;;
23258;SDS011;11798;51.528;7.240;2022-12-29T01:53:48;0.50;;;0.50;;
23258;SDS011;11798;51.528;7.240;2022-12-29T01:56:14;1.67;;;0.80;;
23258;SDS011;11798;51.528;7.240;2022-12-29T01:58:45;1.60;;;0.63;;
23258;SDS011;11798;51.528;7.240;2022-12-29T02:01:14;1.43;;;0.80;;
23258;SDS011;11798;51.528;7.240;2022-12-29T02:03:43;0.83;;;0.50;;
23258;SDS011;11798;51.528;7.240;2022-12-29T02:06:13;1.00;;;0.70;;
23258;SDS011;11798;51.528;7.240;2022-12-29T02:08:42;0.63;;;0.63;;
23258;SDS011;11798;51.528;7.240;2022-12-29T02:11:11;1.30;;;0.70;;
23258;SDS011;11798;51.528;7.240;2022-12-29T02:13:38;0.90;;;0.80;;
23258;SDS011;11798;51.528;7.240;2022-12-29T02:19:09;0.93;;;0.60;;
23258;SDS011;11798;51.528;7.240;2022-12-29T02:25:00;0.60;;;0.60;;
23258;SDS011;11798;51.528;7.240;2022-12-29T02:30:45;1.33;;;0.80;;
23258;SDS011;11798;51.528;7.240;2022-12-29T02:33:30;0.90;;;0.63;;
23258;SDS011;11798;51.528;7.240;2022-12-29T02:36:07;0.60;;;0.60;;
23258;SDS011;11798;51.528;7.240;2022-12-29T02:38:59;1.03;;;0.73;;
23258;SDS011;11798;51.528;7.240;2022-12-29T02:42:08;1.77;;;0.70;;
23258;SDS011;11798;51.528;7.240;2022-12-29T02:44:55;1.70;;;0.90;;
23258;SDS011;11798;51.528;7.240;2022-12-29T02:47:23;1.20;;;1.10;;
23258;SDS011;11798;51.528;7.240;2022-12-29T02:50:02;0.80;;;0.70;;
23258;SDS011;11798;51.528;7.240;2022-12-29T02:52:37;1.17;;;0.70;;
23258;SDS011;11798;51.528;7.240;2022-12-29T02:55:10;0.90;;;0.63;;
23258;SDS011;11798;51.528;7.240;2022-12-29T02:57:36;1.20;;;0.80;;
23258;SDS011;11798;51.528;7.240;2022-12-29T03:00:07;0.73;;;0.70;;
23258;SDS011;11798;51.528;7.240;2022-12-29T03:07:50;2.13;;;0.80;;
23258;SDS011;11798;51.528;7.240;2022-12-29T03:19:10;2.93;;;0.80;;
23258;SDS011;11798;51.528;7.240;2022-12-29T03:21:47;1.87;;;1.00;;
23258;SDS011;11798;51.528;7.240;2022-12-29T03:24:40;3.13;;;0.93;;
23258;SDS011;11798;51.528;7.240;2022-12-29T03:27:13;1.93;;;1.00;;
23258;SDS011;11798;51.528;7.240;2022-12-29T03:29:44;2.20;;;0.90;;
23258;SDS011;11798;51.528;7.240;2022-12-29T03:32:17;3.37;;;0.93;;
23258;SDS011;11798;51.528;7.240;2022-12-29T03:34:44;2.70;;;0.80;;
23258;SDS011;11798;51.528;7.240;2022-12-29T03:37:11;1.43;;;0.90;;
23258;SDS011;11798;51.528;7.240;2022-12-29T03:39:39;1.43;;;1.17;;
23258;SDS011;11798;51.528;7.240;2022-12-29T03:42:10;1.07;;;0.80;;
23258;SDS011;11798;51.528;7.240;2022-12-29T03:44:41;0.90;;;0.80;;
23258;SDS011;11798;51.528;7.240;2022-12-29T03:47:07;1.00;;;0.87;;
23258;SDS011;11798;51.528;7.240;2022-12-29T03:49:36;1.83;;;1.10;;
23258;SDS011;11798;51.528;7.240;2022-12-29T03:52:01;2.03;;;0.97;;
23258;SDS011;11798;51.528;7.240;2022-12-29T03:54:27;1.43;;;0.73;;
23258;SDS011;11798;51.528;7.240;2022-12-29T03:56:53;1.20;;;0.70;;
23258;SDS011;11798;51.528;7.240;2022-12-29T03:59:18;1.83;;;1.00;;
23258;SDS011;11798;51.528;7.240;2022-12-29T04:01:44;1.63;;;1.00;;
23258;SDS011;11798;51.528;7.240;2022-12-29T04:04:09;1.97;;;0.93;;
23258;SDS011;11798;51.528;7.240;2022-12-29T04:06:35;1.63;;;0.70;;
23258;SDS011;11798;51.528;7.240;2022-12-29T04:09:00;2.47;;;0.90;;
23258;SDS011;11798;51.528;7.240;2022-12-29T04:11:26;1.87;;;0.80;;
23258;SDS011;11798;51.528;7.240;2022-12-29T04:13:52;3.00;;;1.37;;
23258;SDS011;11798;51.528;7.240;2022-12-29T04:16:17;1.93;;;0.80;;
23258;SDS011;11798;51.528;7.240;2022-12-29T04:18:43;2.70;;;1.17;;
23258;SDS011;11798;51.528;7.240;2022-12-29T04:21:08;3.97;;;1.10;;
23258;SDS011;11798;51.528;7.240;2022-12-29T04:23:35;2.57;;;0.87;;
23258;SDS011;11798;51.528;7.240;2022-12-29T04:26:03;1.07;;;0.87;;
23258;SDS011;11798;51.528;7.240;2022-12-29T04:28:29;1.27;;;0.80;;
23258;SDS011;11798;51.528;7.240;2022-12-29T04:30:55;2.03;;;0.97;;
23258;SDS011;11798;51.528;7.240;2022-12-29T04:33:21;2.63;;;1.00;;
23258;SDS011;11798;51.528;7.240;2022-12-29T04:35:47;1.00;;;0.90;;
23258;SDS011;11798;51.528;7.240;2022-12-29T04:38:13;1.60;;;0.80;;
23258;SDS011;11798;51.528;7.240;2022-12-29T04:40:39;1.43;;;1.00;;
23258;SDS011;11798;51.528;7.240;2022-12-29T04:43:07;0.80;;;0.80;;
23258;SDS011;11798;51.528;7.240;2022-12-29T04:45:33;0.60;;;0.60;;
23258;SDS011;11798;51.528;7.240;2022-12-29T04:47:59;0.70;;;0.70;;
23258;SDS011;11798;51.528;7.240;2022-12-29T04:50:24;2.67;;;1.10;;
23258;SDS011;11798;51.528;7.240;2022-12-29T04:52:50;1.23;;;0.80;;
23258;SDS011;11798;51.528;7.240;2022-12-29T04:55:16;1.13;;;0.70;;
23258;SDS011;11798;51.528;7.240;2022-12-29T04:57:41;1.67;;;0.90;;
23258;SDS011;11798;51.528;7.240;2022-12-29T05:00:07;0.97;;;0.60;;
23258;SDS011;11798;51.528;7.240;2022-12-29T05:02:37;0.70;;;0.70;;
23258;SDS011;11798;51.528;7.240;2022-12-29T05:05:03;3.03;;;0.60;;
23258;SDS011;11798;51.528;7.240;2022-12-29T05:07:29;1.27;;;0.67;;
23258;SDS011;11798;51.528;7.240;2022-12-29T05:09:55;1.07;;;0.60;;
23258;SDS011;11798;51.528;7.240;2022-12-29T05:12:20;2.30;;;1.00;;
23258;SDS011;11798;51.528;7.240;2022-12-29T05:14:46;0.87;;;0.70;;
23258;SDS011;11798;51.528;7.240;2022-12-29T05:17:11;2.80;;;0.97;;
23258;SDS011;11798;51.528;7.240;2022-12-29T05:19:37;2.37;;;0.70;;
23258;SDS011;11798;51.528;7.240;2022-12-29T05:22:03;1.57;;;0.70;;
23258;SDS011;11798;51.528;7.240;2022-12-29T05:24:29;1.83;;;0.80;;
23258;SDS011;11798;51.528;7.240;2022-12-29T05:26:54;1.10;;;0.83;;
23258;SDS011;11798;51.528;7.240;2022-12-29T05:29:20;3.33;;;0.90;;
23258;SDS011;11798;51.528;7.240;2022-12-29T05:31:46;2.23;;;0.90;;
23258;SDS011;11798;51.528;7.240;2022-12-29T05:34:11;0.90;;;0.60;;
23258;SDS011;11798;51.528;7.240;2022-12-29T05:36:37;0.87;;;0.80;;
23258;SDS011;11798;51.528;7.240;2022-12-29T05:39:03;1.33;;;1.03;;
23258;SDS011;11798;51.528;7.240;2022-12-29T05:41:29;1.73;;;0.83;;
23258;SDS011;11798;51.528;7.240;2022-12-29T05:43:55;2.23;;;0.80;;
23258;SDS011;11798;51.528;7.240;2022-12-29T05:46:21;1.13;;;0.80;;
23258;SDS011;11798;51.528;7.240;2022-12-29T05:48:46;3.97;;;0.90;;
23258;SDS011;11798;51.528;7.240;2022-12-29T05:51:12;1.53;;;0.83;;
23258;SDS011;11798;51.528;7.240;2022-12-29T05:53:37;2.90;;;1.37;;
23258;SDS011;11798;51.528;7.240;2022-12-29T05:56:03;1.90;;;0.90;;
23258;SDS011;11798;51.528;7.240;2022-12-29T05:58:29;1.33;;;0.80;;
23258;SDS011;11798;51.528;7.240;2022-12-29T06:00:54;1.40;;;0.83;;
23258;SDS011;11798;51.528;7.240;2022-12-29T06:03:20;1.83;;;1.30;;
23258;SDS011;11798;51.528;7.240;2022-12-29T06:05:46;2.13;;;0.90;;
23258;SDS011;11798;51.528;7.240;2022-12-29T06:08:11;2.40;;;0.90;;
23258;SDS011;11798;51.528;7.240;2022-12-29T06:10:37;4.93;;;1.10;;
23258;SDS011;11798;51.528;7.240;2022-12-29T06:13:03;2.10;;;1.00;;
23258;SDS011;11798;51.528;7.240;2022-12-29T06:15:30;1.80;;;0.80;;
23258;SDS011;11798;51.528;7.240;2022-12-29T06:17:56;1.93;;;0.90;;
23258;SDS011;11798;51.528;7.240;2022-12-29T06:20:22;3.83;;;2.27;;
23258;SDS011;11798;51.528;7.240;2022-12-29T06:22:47;3.73;;;1.80;;
23258;SDS011;11798;51.528;7.240;2022-12-29T06:25:14;4.20;;;1.20;;
23258;SDS011;11798;51.528;7.240;2022-12-29T06:27:39;2.13;;;0.93;;
23258;SDS011;11798;51.528;7.240;2022-12-29T06:30:05;1.80;;;0.97;;
23258;SDS011;11798;51.528;7.240;2022-12-29T06:32:31;1.73;;;1.00;;
23258;SDS011;11798;51.528;7.240;2022-12-29T06:34:57;2.07;;;1.20;;
23258;SDS011;11798;51.528;7.240;2022-12-29T06:37:22;1.73;;;0.80;;
23258;SDS011;11798;51.528;7.240;2022-12-29T06:39:48;4.87;;;1.40;;
23258;SDS011;11798;51.528;7.240;2022-12-29T06:42:14;3.60;;;1.00;;
23258;SDS011;11798;51.528;7.240;2022-12-29T06:44:40;2.40;;;1.10;;
23258;SDS011;11798;51.528;7.240;2022-12-29T06:47:05;2.23;;;1.10;;
23258;SDS011;11798;51.528;7.240;2022-12-29T06:49:31;3.70;;;1.30;;
23258;SDS011;11798;51.528;7.240;2022-12-29T06:51:57;1.90;;;1.10;;
23258;SDS011;11798;51.528;7.240;2022-12-29T06:54:24;1.43;;;1.03;;
23258;SDS011;11798;51.528;7.240;2022-12-29T06:56:50;2.50;;;1.07;;
23258;SDS011;11798;51.528;7.240;2022-12-29T06:59:15;1.40;;;0.80;;
23258;SDS011;11798;51.528;7.240;2022-12-29T07:01:41;2.40;;;0.90;;
23258;SDS011;11798;51.528;7.240;2022-12-29T07:04:06;7.00;;;1.60;;
23258;SDS011;11798;51.528;7.240;2022-12-29T07:06:32;4.10;;;1.00;;
23258;SDS011;11798;51.528;7.240;2022-12-29T07:08:58;2.63;;;0.90;;
23258;SDS011;11798;51.528;7.240;2022-12-29T07:11:23;3.33;;;1.00;;
23258;SDS011;11798;51.528;7.240;2022-12-29T07:13:49;2.63;;;0.90;;
23258;SDS011;11798;51.528;7.240;2022-12-29T07:16:15;3.40;;;1.20;;
23258;SDS011;11798;51.528;7.240;2022-12-29T07:18:41;2.50;;;1.00;;
23258;SDS011;11798;51.528;7.240;2022-12-29T07:21:06;3.37;;;1.10;;
23258;SDS011;11798;51.528;7.240;2022-12-29T07:23:32;2.10;;;1.23;;
23258;SDS011;11798;51.528;7.240;2022-12-29T07:26:07;2.47;;;0.80;;
23258;SDS011;11798;51.528;7.240;2022-12-29T07:28:34;2.33;;;1.00;;
23258;SDS011;11798;51.528;7.240;2022-12-29T07:31:01;5.57;;;1.10;;
23258;SDS011;11798;51.528;7.240;2022-12-29T07:33:30;3.30;;;1.03;;
23258;SDS011;11798;51.528;7.240;2022-12-29T07:35:56;4.33;;;1.27;;
23258;SDS011;11798;51.528;7.240;2022-12-29T07:38:22;4.27;;;1.47;;
23258;SDS011;11798;51.528;7.240;2022-12-29T07:40:48;2.63;;;1.10;;
23258;SDS011;11798;51.528;7.240;2022-12-29T07:43:14;3.40;;;1.10;;
23258;SDS011;11798;51.528;7.240;2022-12-29T07:45:39;1.70;;;0.90;;
23258;SDS011;11798;51.528;7.240;2022-12-29T07:48:05;6.97;;;1.43;;
23258;SDS011;11798;51.528;7.240;2022-12-29T07:50:34;2.27;;;0.80;;
23258;SDS011;11798;51.528;7.240;2022-12-29T07:53:00;2.70;;;1.20;;
23258;SDS011;11798;51.528;7.240;2022-12-29T07:55:26;3.57;;;1.17;;
23258;SDS011;11798;51.528;7.240;2022-12-29T07:57:53;7.03;;;2.77;;
23258;SDS011;11798;51.528;7.240;2022-12-29T08:00:19;5.90;;;1.50;;
23258;SDS011;11798;51.528;7.240;2022-12-29T08:02:45;4.13;;;1.27;;
23258;SDS011;11798;51.528;7.240;2022-12-29T08:05:10;3.73;;;1.17;;
23258;SDS011;11798;51.528;7.240;2022-12-29T08:07:36;4.90;;;0.93;;
23258;SDS011;11798;51.528;7.240;2022-12-29T08:10:02;5.97;;;1.30;;
23258;SDS011;11798;51.528;7.240;2022-12-29T08:12:28;1.63;;;0.97;;
23258;SDS011;11798;51.528;7.240;2022-12-29T08:14:53;2.73;;;1.00;;
23258;SDS011;11798;51.528;7.240;2022-12-29T08:17:19;4.30;;;1.30;;
23258;SDS011;11798;51.528;7.240;2022-12-29T08:19:45;3.23;;;1.10;;
23258;SDS011;11798;51.528;7.240;2022-12-29T08:22:10;5.40;;;1.63;;
23258;SDS011;11798;51.528;7.240;2022-12-29T08:24:36;6.60;;;1.73;;
23258;SDS011;11798;51.528;7.240;2022-12-29T08:27:01;3.83;;;1.73;;
23258;SDS011;11798;51.528;7.240;2022-12-29T08:29:27;5.33;;;1.40;;
23258;SDS011;11798;51.528;7.240;2022-12-29T08:31:52;3.97;;;1.30;;
23258;SDS011;11798;51.528;7.240;2022-12-29T08:34:18;7.43;;;1.20;;
23258;SDS011;11798;51.528;7.240;2022-12-29T08:36:44;7.97;;;1.67;;
23258;SDS011;11798;51.528;7.240;2022-12-29T08:39:09;5.70;;;1.40;;
23258;SDS011;11798;51.528;7.240;2022-12-29T08:41:35;7.73;;;1.33;;
23258;SDS011;11798;51.528;7.240;2022-12-29T08:44:00;5.50;;;1.27;;
23258;SDS011;11798;51.528;7.240;2022-12-29T08:46:26;9.97;;;1.30;;
23258;SDS011;11798;51.528;7.240;2022-12-29T08:48:52;8.03;;;1.87;;
23258;SDS011;11798;51.528;7.240;2022-12-29T08:51:18;4.30;;;1.20;;
23258;SDS011;11798;51.528;7.240;2022-12-29T08:53:43;4.30;;;1.53;;
23258;SDS011;11798;51.528;7.240;2022-12-29T08:56:09;7.83;;;1.40;;
23258;SDS011;11798;51.528;7.240;2022-12-29T08:58:36;6.77;;;1.37;;
23258;SDS011;11798;51.528;7.240;2022-12-29T09:01:02;8.77;;;2.73;;
23258;SDS011;11798;51.528;7.240;2022-12-29T09:03:28;4.37;;;1.40;;
23258;SDS011;11798;51.528;7.240;2022-12-29T09:05:54;6.10;;;1.73;;
23258;SDS011;11798;51.528;7.240;2022-12-29T09:08:20;7.63;;;1.43;;
23258;SDS011;11798;51.528;7.240;2022-12-29T09:10:47;3.70;;;1.10;;
23258;SDS011;11798;51.528;7.240;2022-12-29T09:13:13;6.87;;;1.53;;
23258;SDS011;11798;51.528;7.240;2022-12-29T09:15:39;5.80;;;1.47;;
23258;SDS011;11798;51.528;7.240;2022-12-29T09:18:06;3.97;;;0.90;;
23258;SDS011;11798;51.528;7.240;2022-12-29T09:20:34;5.87;;;1.60;;
23258;SDS011;11798;51.528;7.240;2022-12-29T09:22:59;6.03;;;1.40;;
23258;SDS011;11798;51.528;7.240;2022-12-29T09:25:25;4.60;;;1.63;;
23258;SDS011;11798;51.528;7.240;2022-12-29T09:27:51;2.80;;;1.20;;
23258;SDS011;11798;51.528;7.240;2022-12-29T09:30:18;3.60;;;1.40;;
23258;SDS011;11798;51.528;7.240;2022-12-29T09:32:46;5.80;;;1.73;;
23258;SDS011;11798;51.528;7.240;2022-12-29T09:35:12;4.07;;;1.20;;
23258;SDS011;11798;51.528;7.240;2022-12-29T09:37:39;4.83;;;1.67;;
23258;SDS011;11798;51.528;7.240;2022-12-29T09:40:05;5.93;;;1.37;;
23258;SDS011;11798;51.528;7.240;2022-12-29T09:42:43;5.50;;;1.60;;
23258;SDS011;11798;51.528;7.240;2022-12-29T09:45:23;8.63;;;1.50;;
23258;SDS011;11798;51.528;7.240;2022-12-29T09:48:08;5.90;;;1.83;;
23258;SDS011;11798;51.528;7.240;2022-12-29T09:50:41;6.07;;;1.53;;
23258;SDS011;11798;51.528;7.240;2022-12-29T09:53:21;4.47;;;1.43;;
23258;SDS011;11798;51.528;7.240;2022-12-29T09:55:55;6.17;;;1.70;;
23258;SDS011;11798;51.528;7.240;2022-12-29T09:58:24;6.70;;;1.47;;
23258;SDS011;11798;51.528;7.240;2022-12-29T10:01:03;6.93;;;1.80;;
23258;SDS011;11798;51.528;7.240;2022-12-29T10:03:52;7.87;;;1.50;;
23258;SDS011;11798;51.528;7.240;2022-12-29T10:25:41;6.10;;;1.50;;
23258;SDS011;11798;51.528;7.240;2022-12-29T10:28:21;7.40;;;1.80;;
23258;SDS011;11798;51.528;7.240;2022-12-29T10:30:54;6.57;;;1.60;;
23258;SDS011;11798;51.528;7.240;2022-12-29T10:33:24;2.40;;;1.10;;
23258;SDS011;11798;51.528;7.240;2022-12-29T10:35:56;6.13;;;1.60;;
23258;SDS011;11798;51.528;7.240;2022-12-29T10:38:35;5.43;;;1.60;;
23258;SDS011;11798;51.528;7.240;2022-12-29T10:43:49;5.90;;;1.83;;
23258;SDS011;11798;51.528;7.240;2022-12-29T10:46:18;5.43;;;1.50;;
23258;SDS011;11798;51.528;7.240;2022-12-29T10:48:46;8.30;;;1.57;;
23258;SDS011;11798;51.528;7.240;2022-12-29T10:51:17;7.30;;;1.60;;
23258;SDS011;11798;51.528;7.240;2022-12-29T10:53:51;4.80;;;1.50;;
23258;SDS011;11798;51.528;7.240;2022-12-29T10:58:58;5.13;;;1.43;;
23258;SDS011;11798;51.528;7.240;2022-12-29T11:01:31;8.40;;;1.30;;
23258;SDS011;11798;51.528;7.240;2022-12-29T11:04:02;6.33;;;1.50;;
23258;SDS011;11798;51.528;7.240;2022-12-29T11:06:48;7.47;;;1.30;;
23258;SDS011;11798;51.528;7.240;2022-12-29T11:09:15;6.03;;;1.40;;
23258;SDS011;11798;51.528;7.240;2022-12-29T11:11:43;5.23;;;1.80;;
23258;SDS011;11798;51.528;7.240;2022-12-29T11:17:09;5.57;;;1.50;;
23258;SDS011;11798;51.528;7.240;2022-12-29T11:19:40;5.37;;;1.63;;
23258;SDS011;11798;51.528;7.240;2022-12-29T11:24:50;5.83;;;1.53;;
23258;SDS011;11798;51.528;7.240;2022-12-29T11:27:19;8.33;;;1.77;;
23258;SDS011;11798;51.528;7.240;2022-12-29T11:29:50;7.63;;;1.50;;
23258;SDS011;11798;51.528;7.240;2022-12-29T11:32:18;8.47;;;2.03;;
23258;SDS011;11798;51.528;7.240;2022-12-29T11:34:44;7.17;;;1.57;;
23258;SDS011;11798;51.528;7.240;2022-12-29T11:37:14;7.30;;;1.60;;
23258;SDS011;11798;51.528;7.240;2022-12-29T11:39:58;6.30;;;1.43;;
23258;SDS011;11798;51.528;7.240;2022-12-29T11:45:03;10.93;;;2.57;;
23258;SDS011;11798;51.528;7.240;2022-12-29T11:47:32;4.97;;;2.00;;
23258;SDS011;11798;51.528;7.240;2022-12-29T11:50:02;9.23;;;1.93;;
23258;SDS011;11798;51.528;7.240;2022-12-29T11:52:32;5.03;;;1.30;;
23258;SDS011;11798;51.528;7.240;2022-12-29T11:55:01;8.60;;;1.67;;
23258;SDS011;11798;51.528;7.240;2022-12-29T11:57:30;7.07;;;1.77;;
23258;SDS011;11798;51.528;7.240;2022-12-29T12:00:00;7.40;;;1.60;;
23258;SDS011;11798;51.528;7.240;2022-12-29T12:05:37;9.60;;;1.70;;
23258;SDS011;11798;51.528;7.240;2022-12-29T12:08:18;7.43;;;1.20;;
23258;SDS011;11798;51.528;7.240;2022-12-29T12:11:11;7.43;;;1.90;;
23258;SDS011;11798;51.528;7.240;2022-12-29T12:13:39;4.73;;;1.60;;
23258;SDS011;11798;51.528;7.240;2022-12-29T12:18:42;7.13;;;1.90;;
23258;SDS011;11798;51.528;7.240;2022-12-29T12:21:15;7.77;;;1.67;;
23258;SDS011;11798;51.528;7.240;2022-12-29T12:27:10;7.60;;;1.40;;
23258;SDS011;11798;51.528;7.240;2022-12-29T12:30:33;9.07;;;1.40;;
23258;SDS011;11798;51.528;7.240;2022-12-29T13:00:33;4.73;;;1.30;;
23258;SDS011;11798;51.528;7.240;2022-12-29T13:03:44;5.87;;;1.40;;
23258;SDS011;11798;51.528;7.240;2022-12-29T13:07:30;8.30;;;2.10;;
23258;SDS011;11798;51.528;7.240;2022-12-29T13:12:39;6.87;;;1.73;;
23258;SDS011;11798;51.528;7.240;2022-12-29T13:18:05;7.40;;;1.60;;
23258;SDS011;11798;51.528;7.240;2022-12-29T13:20:44;9.00;;;1.97;;
23258;SDS011;11798;51.528;7.240;2022-12-29T13:23:33;2.80;;;1.23;;
23258;SDS011;11798;51.528;7.240;2022-12-29T13:26:11;9.20;;;1.87;;
23258;SDS011;11798;51.528;7.240;2022-12-29T13:28:50;7.50;;;1.60;;
23258;SDS011;11798;51.528;7.240;2022-12-29T13:31:23;6.67;;;1.73;;
23258;SDS011;11798;51.528;7.240;2022-12-29T13:36:40;11.77;;;1.80;;
23258;SDS011;11798;51.528;7.240;2022-12-29T13:41:53;6.87;;;1.70;;
23258;SDS011;11798;51.528;7.240;2022-12-29T13:44:27;8.47;;;2.20;;
23258;SDS011;11798;51.528;7.240;2022-12-29T13:46:56;7.63;;;2.07;;
23258;SDS011;11798;51.528;7.240;2022-12-29T13:49:26;7.33;;;1.80;;
23258;SDS011;11798;51.528;7.240;2022-12-29T13:51:56;5.53;;;1.80;;
23258;SDS011;11798;51.528;7.240;2022-12-29T13:57:10;6.20;;;1.57;;
23258;SDS011;11798;51.528;7.240;2022-12-29T14:00:02;3.63;;;1.40;;
23258;SDS011;11798;51.528;7.240;2022-12-29T14:08:02;6.00;;;1.60;;
23258;SDS011;11798;51.528;7.240;2022-12-29T14:10:32;7.83;;;1.70;;
23258;SDS011;11798;51.528;7.240;2022-12-29T14:13:03;7.30;;;1.70;;
23258;SDS011;11798;51.528;7.240;2022-12-29T14:15:38;6.03;;;1.50;;
23258;SDS011;11798;51.528;7.240;2022-12-29T14:20:50;5.63;;;1.43;;
23258;SDS011;11798;51.528;7.240;2022-12-29T14:26:44;7.83;;;2.00;;
23258;SDS011;11798;51.528;7.240;2022-12-29T14:28:56;6.10;;;1.90;;
23258;SDS011;11798;51.528;7.240;2022-12-29T14:31:41;7.77;;;1.83;;
23258;SDS011;11798;51.528;7.240;2022-12-29T14:42:06;11.87;;;1.90;;
23258;SDS011;11798;51.528;7.240;2022-12-29T14:44:46;7.83;;;1.97;;
23258;SDS011;11798;51.528;7.240;2022-12-29T14:50:13;5.47;;;1.80;;
23258;SDS011;11798;51.528;7.240;2022-12-29T14:52:47;10.53;;;2.37;;
23258;SDS011;11798;51.528;7.240;2022-12-29T14:57:43;5.60;;;1.80;;
23258;SDS011;11798;51.528;7.240;2022-12-29T15:00:23;5.53;;;1.50;;
23258;SDS011;11798;51.528;7.240;2022-12-29T15:03:03;4.37;;;1.50;;
23258;SDS011;11798;51.528;7.240;2022-12-29T15:08:11;7.13;;;1.60;;
23258;SDS011;11798;51.528;7.240;2022-12-29T15:10:45;7.07;;;1.73;;
23258;SDS011;11798;51.528;7.240;2022-12-29T15:13:21;5.03;;;1.67;;
23258;SDS011;11798;51.528;7.240;2022-12-29T15:15:50;6.60;;;2.30;;
23258;SDS011;11798;51.528;7.240;2022-12-29T15:20:55;6.70;;;2.10;;
23258;SDS011;11798;51.528;7.240;2022-12-29T15:23:24;8.17;;;2.50;;
23258;SDS011;11798;51.528;7.240;2022-12-29T15:28:19;7.43;;;2.27;;
23258;SDS011;11798;51.528;7.240;2022-12-29T15:30:50;8.23;;;2.20;;
23258;SDS011;11798;51.528;7.240;2022-12-29T15:33:18;8.27;;;1.90;;
23258;SDS011;11798;51.528;7.240;2022-12-29T15:35:49;7.33;;;1.93;;
23258;SDS011;11798;51.528;7.240;2022-12-29T15:38:20;8.03;;;2.10;;
23258;SDS011;11798;51.528;7.240;2022-12-29T15:40:51;9.83;;;2.00;;
23258;SDS011;11798;51.528;7.240;2022-12-29T15:46:10;10.20;;;1.60;;
23258;SDS011;11798;51.528;7.240;2022-12-29T15:48:37;6.97;;;1.70;;
23258;SDS011;11798;51.528;7.240;2022-12-29T15:51:04;6.47;;;1.83;;
23258;SDS011;11798;51.528;7.240;2022-12-29T15:53:55;8.30;;;1.80;;
23258;SDS011;11798;51.528;7.240;2022-12-29T15:56:22;4.53;;;1.80;;
23258;SDS011;11798;51.528;7.240;2022-12-29T15:58:48;5.80;;;1.47;;
23258;SDS011;11798;51.528;7.240;2022-12-29T16:01:17;7.53;;;2.03;;
23258;SDS011;11798;51.528;7.240;2022-12-29T16:03:42;9.00;;;2.43;;
23258;SDS011;11798;51.528;7.240;2022-12-29T16:06:21;5.87;;;2.00;;
23258;SDS011;11798;51.528;7.240;2022-12-29T16:09:05;9.57;;;3.43;;
23258;SDS011;11798;51.528;7.240;2022-12-29T16:11:40;9.03;;;2.63;;
23258;SDS011;11798;51.528;7.240;2022-12-29T16:14:19;6.93;;;2.00;;
23258;SDS011;11798;51.528;7.240;2022-12-29T16:16:49;5.43;;;1.50;;
23258;SDS011;11798;51.528;7.240;2022-12-29T16:19:19;8.83;;;2.00;;
23258;SDS011;11798;51.528;7.240;2022-12-29T16:21:50;4.83;;;1.50;;
23258;SDS011;11798;51.528;7.240;2022-12-29T16:24:17;5.80;;;2.10;;
23258;SDS011;11798;51.528;7.240;2022-12-29T16:26:55;6.80;;;1.43;;
23258;SDS011;11798;51.528;7.240;2022-12-29T16:29:52;7.03;;;2.10;;
23258;SDS011;11798;51.528;7.240;2022-12-29T16:35:02;4.07;;;1.47;;
23258;SDS011;11798;51.528;7.240;2022-12-29T16:37:30;4.70;;;1.77;;
23258;SDS011;11798;51.528;7.240;2022-12-29T16:42:54;7.13;;;2.17;;
23258;SDS011;11798;51.528;7.240;2022-12-29T16:50:25;5.30;;;1.57;;
23258;SDS011;11798;51.528;7.240;2022-12-29T16:52:52;5.60;;;2.00;;
23258;SDS011;11798;51.528;7.240;2022-12-29T16:55:18;6.70;;;2.03;;
23258;SDS011;11798;51.528;7.240;2022-12-29T16:57:45;8.17;;;2.00;;
23258;SDS011;11798;51.528;7.240;2022-12-29T17:00:19;6.90;;;2.10;;
23258;SDS011;11798;51.528;7.240;2022-12-29T17:02:48;6.17;;;2.30;;
23258;SDS011;11798;51.528;7.240;2022-12-29T17:05:16;8.27;;;2.23;;
23258;SDS011;11798;51.528;7.240;2022-12-29T17:07:43;7.47;;;1.97;;
23258;SDS011;11798;51.528;7.240;2022-12-29T17:10:09;6.40;;;2.03;;
23258;SDS011;11798;51.528;7.240;2022-12-29T17:12:35;6.87;;;2.00;;
23258;SDS011;11798;51.528;7.240;2022-12-29T17:15:02;24.40;;;11.33;;
23258;SDS011;11798;51.528;7.240;2022-12-29T17:17:38;8.67;;;3.07;;
23258;SDS011;11798;51.528;7.240;2022-12-29T17:20:14;8.40;;;2.13;;
23258;SDS011;11798;51.528;7.240;2022-12-29T17:22:41;9.70;;;2.63;;
23258;SDS011;11798;51.528;7.240;2022-12-29T17:25:08;10.80;;;4.17;;
23258;SDS011;11798;51.528;7.240;2022-12-29T17:27:37;9.30;;;3.70;;
23258;SDS011;11798;51.528;7.240;2022-12-29T17:30:11;9.00;;;2.40;;
23258;SDS011;11798;51.528;7.240;2022-12-29T17:32:42;3.90;;;1.00;;
23258;SDS011;11798;51.528;7.240;2022-12-29T17:35:13;3.40;;;1.40;;
23258;SDS011;11798;51.528;7.240;2022-12-29T17:37:45;3.53;;;1.10;;
23258;SDS011;11798;51.528;7.240;2022-12-29T17:40:15;4.13;;;1.50;;
23258;SDS011;11798;51.528;7.240;2022-12-29T17:42:45;4.63;;;1.70;;